Vremea acum in Călimănești - Romania

Vrei sa afli care e starea vremii acum in Valcea - Romania? Dorim sa iti furnizam starea vremii pentru Valcea - Romania. Starea vremii Valcea - Romania pentru astazi.

Vremea acum in Călimănești

Temperatura: 4.8 °C

Este: Patchy rain nearby
Se simte ca: 3.2 °C
Innorat: 100 %
Precipitatii: %
Presiune atmosferica: 1023 hPa
Umiditate: 94%
Vizibilitate: 10 km
Vantul bate din ESE cu 6.8 km/h

Evolutia vremii in Călimănești pe ore

Ora: 23:00
Temperatura: °C
Sansa de precipitatii: %
Ora Descriere Temp Se simte Precipitatii Umiditate Vant
00:00Senin1.3°0%87%NNE 4.7 KM/H
01:00Senin0.7°-0.8°0%88%NNE 5 KM/H
02:000.3°-1.6°0%88%NNE 5.8 KM/H
03:000.1°-1.8°0%88%NNE 5.8 KM/H
04:00Senin-0.1°-1.7°0%88%NNE 5 KM/H
05:00-0.4°-2.1°0%89%NNE 5 KM/H
06:00-0.6°-2.6°0%89%N 5.8 KM/H
07:00Senin0.2°-1.7°0%86%N 5.8 KM/H
08:00Senin5.9°5.6°0%76%NNW 4 KM/H
09:00Senin8.7°8.7°0%65%NNW 2.9 KM/H
10:00Senin11°11.4°0%54%WNW 3.6 KM/H
11:00Patchy rain nearby12.6°12.8°76%48%W 4.7 KM/H
12:00Ploi usoare13.9°13.9°100%47%WSW 2.5 KM/H
13:00Burniță ușoară14.2°14.2°100%49%ESE 1.1 KM/H
14:00Patchy rain nearby13.4°13.1°100%55%ESE 7.6 KM/H
15:00Patchy rain nearby13.2°12.7°100%60%ESE 8.6 KM/H
16:00Patchy rain nearby13.5°13.3°100%61%ESE 6.8 KM/H
17:00Patchy rain nearby13.1°12.6°100%64%ESE 8.3 KM/H
18:00Ploi usoare12.1°11.2°100%71%ESE 9.7 KM/H
19:00Ploi usoare10.5°9.2°100%81%SE 10.4 KM/H
20:00Patchy rain nearby4.8°100%89%SE 11.2 KM/H
21:00Patchy rain nearby4.8°3.2°100%94%ESE 6.8 KM/H
22:00Patchy rain nearby5.9°5.2°100%93%E 4.7 KM/H
23:00Ploi usoare7.2°5.9°100%89%ESE 7.2 KM/H




tutorials